Terminal Aerodrome Forecast
Issued by NWS

Home | Current Version | Previous Version | Text Only | Print | Product List | Glossary On
Versions: 1 2 3 4 5 6 7 8 9 10 11 12 13 14 15 16 17 18 19 20 21 22 23 24 25 26 27 28 29 30 31 32 33 34
000
FTUS43 KDLH 200500
TAFHIB
TAF
KHIB 200534Z 2006/2106 00000KT 5SM BR BKN035
      TEMPO 2006/2009 1SM BR SCT035
     FM200900 00000KT 1/2SM FG OVC001
     FM201400 VRB05KT P6SM SCT015
     FM201600 14006KT P6SM SKC=

USA.gov is the U.S. government's official web portal to all federal, state and local government web resources and services.